createdAt,value
2023-02-24T00:00:41.591Z,42.45
2023-02-24T00:03:14.828Z,43.10
2023-02-24T00:05:41.822Z,47.88
2023-02-24T00:08:15.711Z,45.45
2023-02-24T00:10:42.725Z,45.60
2023-02-24T00:13:16.641Z,47.00
2023-02-24T00:16:01.576Z,43.38
2023-02-24T00:18:35.629Z,43.42
2023-02-24T00:21:07.790Z,41.75
2023-02-24T00:23:42.631Z,44.45
2023-02-24T00:26:10.790Z,48.35
2023-02-24T00:28:37.896Z,46.83
2023-02-24T00:31:19.033Z,44.95
2023-02-24T00:33:53.736Z,47.70
2023-02-24T00:36:21.272Z,46.92
2023-02-24T00:38:54.690Z,50.05
2023-02-24T00:41:29.670Z,42.55
2023-02-24T00:44:08.722Z,48.70
2023-02-24T00:46:41.190Z,41.90
2023-02-24T00:49:18.696Z,42.20
2023-02-24T00:51:48.059Z,45.75
2023-02-24T00:54:22.683Z,45.17
2023-02-24T00:56:49.544Z,42.25
2023-02-24T00:59:23.685Z,47.85
2023-02-24T01:01:51.042Z,44.58
2023-02-24T01:04:24.702Z,45.33
2023-02-24T01:06:53.261Z,47.60
2023-02-24T01:09:27.670Z,42.42
2023-02-24T01:11:54.890Z,48.15
2023-02-24T01:14:25.150Z,48.58
2023-02-24T01:16:58.669Z,46.00
2023-02-24T01:19:30.601Z,43.25
2023-02-24T01:22:05.708Z,41.85
2023-02-24T01:24:35.771Z,44.05
2023-02-24T01:27:03.042Z,44.97
2023-02-24T01:29:36.673Z,45.47
2023-02-24T01:32:03.721Z,46.05
2023-02-24T01:34:37.699Z,51.08
2023-02-24T01:37:04.784Z,47.90
2023-02-24T01:39:37.714Z,46.78
2023-02-24T01:42:11.730Z,44.58
2023-02-24T01:44:41.652Z,46.08
2023-02-24T01:47:08.558Z,45.92
2023-02-24T01:49:45.694Z,47.22
2023-02-24T01:52:29.116Z,48.95
2023-02-24T01:55:05.731Z,48.35
2023-02-24T01:57:39.725Z,49.85
2023-02-24T02:00:09.415Z,48.30
2023-02-24T02:02:43.724Z,50.60
2023-02-24T02:05:10.881Z,53.20
2023-02-24T02:07:45.709Z,52.15
2023-02-24T02:10:12.648Z,50.47
2023-02-24T02:12:46.716Z,50.00
2023-02-24T02:15:17.076Z,53.97
2023-02-24T02:18:08.789Z,47.90
2023-02-24T02:20:53.888Z,48.00
2023-02-24T02:24:06.811Z,47.15
2023-02-24T02:27:04.727Z,44.53
2023-02-24T02:30:01.967Z,44.17
2023-02-24T02:33:08.751Z,39.30
2023-02-24T02:36:23.322Z,40.88
2023-02-24T02:39:37.727Z,41.45
2023-02-24T02:42:11.723Z,38.40
2023-02-24T02:45:09.787Z,44.17
2023-02-24T02:48:07.735Z,45.25
2023-02-24T02:50:45.904Z,44.22
2023-02-24T02:53:30.753Z,46.78
2023-02-24T02:56:13.781Z,47.05
2023-02-24T02:58:44.778Z,50.42
2023-02-24T03:01:19.015Z,44.63
2023-02-24T03:03:56.721Z,44.70
2023-02-24T03:06:41.733Z,44.75
2023-02-24T03:09:27.755Z,49.72
2023-02-24T03:11:58.592Z,43.05
2023-02-24T03:14:37.744Z,46.67
2023-02-24T03:17:11.380Z,43.35
2023-02-24T03:19:45.781Z,45.97
2023-02-24T03:22:17.529Z,45.92
2023-02-24T03:24:50.756Z,43.55
2023-02-24T03:27:28.065Z,39.17
2023-02-24T03:30:22.771Z,42.60
2023-02-24T03:33:13.372Z,46.63
2023-02-24T03:35:47.761Z,44.25
2023-02-24T03:38:14.680Z,43.28
2023-02-24T03:40:41.605Z,41.90
2023-02-24T03:43:39.805Z,46.10
2023-02-24T03:46:12.808Z,45.88
2023-02-24T03:48:47.717Z,40.38
2023-02-24T03:51:26.740Z,45.65
2023-02-24T03:54:29.780Z,45.15
2023-02-24T03:57:56.748Z,47.58
2023-02-24T04:00:45.503Z,46.30
2023-02-24T04:03:39.753Z,38.38
2023-02-24T04:06:18.788Z,43.10
2023-02-24T04:08:58.771Z,45.15
2023-02-24T04:12:08.413Z,42.55
2023-02-24T04:14:59.809Z,36.47
2023-02-24T04:17:56.619Z,45.22
2023-02-24T04:20:31.753Z,44.33
2023-02-24T04:23:17.886Z,42.03
2023-02-24T04:25:53.814Z,43.45
2023-02-24T04:28:21.230Z,43.15
2023-02-24T04:31:00.833Z,44.33
2023-02-24T04:33:34.799Z,46.58
2023-02-24T04:36:01.757Z,43.03
2023-02-24T04:38:28.701Z,43.03
2023-02-24T04:41:01.825Z,40.03
2023-02-24T04:43:28.704Z,42.33
2023-02-24T04:46:01.821Z,46.28
2023-02-24T04:48:28.713Z,47.42
2023-02-24T04:51:01.846Z,47.83
2023-02-24T04:53:28.899Z,44.47
2023-02-24T04:56:02.826Z,47.47
2023-02-24T04:58:29.756Z,43.05
2023-02-24T05:00:56.642Z,42.85
2023-02-24T05:03:30.814Z,46.65
2023-02-24T05:05:59.450Z,46.53
2023-02-24T05:08:33.848Z,42.70
2023-02-24T05:11:00.856Z,43.45
2023-02-24T05:13:35.849Z,40.58
2023-02-24T05:16:15.921Z,45.22
2023-02-24T05:18:42.814Z,42.33
2023-02-24T05:21:15.438Z,43.95
2023-02-24T05:23:52.877Z,44.60
2023-02-24T05:26:26.968Z,44.38
2023-02-24T05:29:01.821Z,51.17
2023-02-24T05:31:30.162Z,42.40
2023-02-24T05:34:08.916Z,46.40
2023-02-24T05:36:44.846Z,44.67
2023-02-24T05:39:12.154Z,45.83
2023-02-24T05:41:48.846Z,43.80
2023-02-24T05:44:18.307Z,44.00
2023-02-24T05:46:52.890Z,44.17
2023-02-24T05:49:34.823Z,47.47
2023-02-24T05:52:07.202Z,43.38
2023-02-24T05:54:46.876Z,44.88
2023-02-24T05:57:16.083Z,39.28
2023-02-24T05:59:43.346Z,44.10
2023-02-24T06:02:19.894Z,44.28
2023-02-24T06:04:46.943Z,45.83
2023-02-24T06:07:25.883Z,49.70
2023-02-24T06:10:01.863Z,53.92
2023-02-24T06:12:31.086Z,56.75
2023-02-24T06:15:04.881Z,53.20
2023-02-24T06:17:31.767Z,47.60
2023-02-24T06:20:04.880Z,46.95
2023-02-24T06:22:37.844Z,40.42
2023-02-24T06:25:05.360Z,42.00
2023-02-24T06:27:32.275Z,42.08
2023-02-24T06:30:05.817Z,68.35
2023-02-24T06:32:32.845Z,61.70
2023-02-24T06:35:05.909Z,60.55
2023-02-24T06:37:33.337Z,49.47
2023-02-24T06:40:06.846Z,48.17
2023-02-24T06:42:33.745Z,42.92
2023-02-24T06:45:00.673Z,40.20
2023-02-24T06:47:33.896Z,41.33
2023-02-24T06:50:00.856Z,40.90
2023-02-24T06:52:33.872Z,41.33
2023-02-24T06:55:06.880Z,41.65
2023-02-24T06:57:33.760Z,37.70
2023-02-24T07:00:01.490Z,40.60
2023-02-24T07:02:34.880Z,45.60
2023-02-24T07:05:01.801Z,45.35
2023-02-24T07:07:34.890Z,44.22
2023-02-24T07:10:01.795Z,44.22
2023-02-24T07:12:34.914Z,45.72
2023-02-24T07:15:01.820Z,40.63
2023-02-24T07:17:41.863Z,43.63
2023-02-24T07:20:10.140Z,45.83
2023-02-24T07:22:44.853Z,46.75
2023-02-24T07:25:11.780Z,47.75
2023-02-24T07:27:44.918Z,46.15
2023-02-24T07:30:12.599Z,49.63
2023-02-24T07:32:39.540Z,55.72
2023-02-24T07:35:13.897Z,47.00
2023-02-24T07:37:40.931Z,47.65
2023-02-24T07:40:15.963Z,49.95
2023-02-24T07:42:45.649Z,44.22
2023-02-24T07:45:18.960Z,50.00
2023-02-24T07:47:45.986Z,47.72
2023-02-24T07:50:13.083Z,49.15
2023-02-24T07:52:48.002Z,47.90
2023-02-24T07:55:29.904Z,50.15
2023-02-24T07:57:57.440Z,53.50
2023-02-24T08:00:30.906Z,52.63
2023-02-24T08:02:58.993Z,51.10
2023-02-24T08:05:32.947Z,58.25
2023-02-24T08:07:59.914Z,56.55
2023-02-24T08:10:26.927Z,51.47
2023-02-24T08:13:01.930Z,53.78
2023-02-24T08:15:28.929Z,52.40
2023-02-24T08:18:04.987Z,54.83
2023-02-24T08:20:32.460Z,51.28
2023-02-24T08:22:59.488Z,52.90
2023-02-24T08:25:35.301Z,50.90
2023-02-24T08:28:08.516Z,51.35
2023-02-24T08:30:45.906Z,54.08
2023-02-24T08:33:19.321Z,51.88
2023-02-24T08:35:58.026Z,54.60
2023-02-24T08:38:26.557Z,49.47
2023-02-24T08:40:53.690Z,50.13
2023-02-24T08:43:32.047Z,53.85
2023-02-24T08:46:12.430Z,50.38
2023-02-24T08:49:01.075Z,49.35
2023-02-24T08:51:35.643Z,49.85
2023-02-24T08:54:12.956Z,48.70
2023-02-24T08:56:39.964Z,59.25
2023-02-24T08:59:06.938Z,61.88
2023-02-24T09:01:48.505Z,55.17
2023-02-24T09:04:17.882Z,56.63
2023-02-24T09:07:00.276Z,58.25
2023-02-24T09:09:36.728Z,59.33
2023-02-24T09:12:09.988Z,55.45
2023-02-24T09:14:36.953Z,55.15
2023-02-24T09:17:20.040Z,55.22
2023-02-24T09:19:49.756Z,50.47
2023-02-24T09:22:27.960Z,52.17
2023-02-24T09:24:55.084Z,52.97
2023-02-24T09:27:35.078Z,52.38
2023-02-24T09:30:02.028Z,56.13
2023-02-24T09:32:29.060Z,56.08
2023-02-24T09:35:03.057Z,56.83
2023-02-24T09:37:30.072Z,48.90
2023-02-24T09:39:57.121Z,57.53
2023-02-24T09:42:37.340Z,51.35
2023-02-24T09:45:13.992Z,56.50
2023-02-24T09:47:42.356Z,50.53
2023-02-24T09:50:59.023Z,54.55
2023-02-24T09:53:23.002Z,60.88
2023-02-24T09:56:33.092Z,62.88
2023-02-24T09:59:28.281Z,62.28
2023-02-24T10:02:51.030Z,65.93
2023-02-24T10:05:28.458Z,63.00
2023-02-24T10:08:02.054Z,57.85
2023-02-24T10:10:33.474Z,55.35
2023-02-24T10:13:14.078Z,66.32
2023-02-24T10:15:57.439Z,62.45
2023-02-24T10:18:48.536Z,61.55
2023-02-24T10:21:43.997Z,62.50
2023-02-24T10:24:29.032Z,64.05
2023-02-24T10:27:08.352Z,59.90
2023-02-24T10:30:18.026Z,69.13
2023-02-24T10:32:56.037Z,69.63
2023-02-24T10:35:30.014Z,66.22
2023-02-24T10:37:57.101Z,65.10
2023-02-24T10:40:31.043Z,56.42
2023-02-24T10:43:07.675Z,65.38
2023-02-24T10:45:46.104Z,58.78
2023-02-24T10:48:32.309Z,59.08
2023-02-24T10:51:22.618Z,57.35
2023-02-24T10:53:50.734Z,60.78
2023-02-24T10:56:17.831Z,56.08
2023-02-24T10:58:51.089Z,53.42
2023-02-24T11:01:43.112Z,56.50
2023-02-24T11:04:15.800Z,57.30
2023-02-24T11:06:42.709Z,57.75
2023-02-24T11:09:43.054Z,63.20
2023-02-24T11:12:25.582Z,56.30
2023-02-24T11:15:04.078Z,59.78
2023-02-24T11:17:30.976Z,60.85
2023-02-24T11:20:14.030Z,58.80
2023-02-24T11:22:49.042Z,61.95
2023-02-24T11:25:34.539Z,60.83
2023-02-24T11:28:08.132Z,60.90
2023-02-24T11:31:03.034Z,67.47
2023-02-24T11:34:12.166Z,61.38
2023-02-24T11:37:05.054Z,57.50
2023-02-24T11:40:01.079Z,61.67
2023-02-24T11:42:46.053Z,53.50
2023-02-24T11:45:15.648Z,57.92
2023-02-24T11:48:16.101Z,55.08
2023-02-24T11:50:58.352Z,52.03
2023-02-24T11:54:00.069Z,48.58
2023-02-24T11:56:55.090Z,54.30
2023-02-24T11:59:44.250Z,46.22
2023-02-24T12:02:38.097Z,66.07
2023-02-24T12:05:15.670Z,55.90
2023-02-24T12:08:05.107Z,52.67
2023-02-24T12:10:35.589Z,50.17
2023-02-24T12:13:18.099Z,51.25
2023-02-24T12:15:59.018Z,54.33
2023-02-24T12:19:05.023Z,50.10
2023-02-24T12:21:38.079Z,52.10
2023-02-24T12:24:12.091Z,55.05
2023-02-24T12:26:59.904Z,58.58
2023-02-24T12:29:51.124Z,47.97
2023-02-24T12:32:26.971Z,47.20
2023-02-24T12:35:28.053Z,50.75
2023-02-24T12:38:16.607Z,47.72
2023-02-24T12:41:27.145Z,44.47
2023-02-24T12:44:38.130Z,49.13
2023-02-24T12:47:46.124Z,46.63
2023-02-24T12:50:55.539Z,40.92
2023-02-24T12:53:59.466Z,43.17
2023-02-24T12:57:10.839Z,44.10
2023-02-24T12:59:46.761Z,43.10
2023-02-24T13:02:55.436Z,40.55
2023-02-24T13:05:38.534Z,37.03
2023-02-24T13:08:47.632Z,40.03
2023-02-24T13:11:32.520Z,34.95
2023-02-24T13:14:38.548Z,36.85
2023-02-24T13:17:11.840Z,44.42
2023-02-24T13:19:55.137Z,42.28
2023-02-24T13:22:30.318Z,41.15
2023-02-24T13:25:14.184Z,42.40
2023-02-24T13:27:44.213Z,46.10
2023-02-24T13:30:24.170Z,47.80
2023-02-24T13:33:14.132Z,37.85
2023-02-24T13:35:41.057Z,40.65
2023-02-24T13:38:38.114Z,43.28
2023-02-24T13:41:36.890Z,43.17
2023-02-24T13:44:26.415Z,42.22
2023-02-24T13:47:22.153Z,40.50
2023-02-24T13:50:30.162Z,40.40
2023-02-24T13:53:18.193Z,36.17
2023-02-24T13:56:31.078Z,40.50
2023-02-24T13:59:19.093Z,40.55
2023-02-24T14:02:01.816Z,37.35
2023-02-24T14:04:42.160Z,44.10
2023-02-24T14:07:17.641Z,43.75
2023-02-24T14:09:55.122Z,41.08
2023-02-24T14:12:26.617Z,41.20
2023-02-24T14:15:00.175Z,39.75
2023-02-24T14:17:35.795Z,38.63
2023-02-24T14:20:26.114Z,38.35
2023-02-24T14:22:55.692Z,42.67
2023-02-24T14:25:23.251Z,38.85
2023-02-24T14:27:59.212Z,39.60
2023-02-24T14:30:29.295Z,36.05
2023-02-24T14:33:03.123Z,37.22
2023-02-24T14:35:40.894Z,46.90
2023-02-24T14:38:34.244Z,37.47
2023-02-24T14:41:02.838Z,34.05
2023-02-24T14:43:29.814Z,40.22
2023-02-24T14:46:03.221Z,43.28
2023-02-24T14:48:31.533Z,35.85
2023-02-24T14:51:20.175Z,44.75
2023-02-24T14:53:55.350Z,35.88
2023-02-24T14:56:30.227Z,38.33
2023-02-24T14:59:07.232Z,40.95
2023-02-24T15:01:46.179Z,42.13
2023-02-24T15:04:22.150Z,38.28
2023-02-24T15:06:55.189Z,43.53
2023-02-24T15:09:34.910Z,40.88
2023-02-24T15:12:23.224Z,36.15
2023-02-24T15:15:15.371Z,47.67
2023-02-24T15:17:49.184Z,38.88
2023-02-24T15:20:28.763Z,38.67
2023-02-24T15:23:03.212Z,37.53
2023-02-24T15:25:48.173Z,40.22
2023-02-24T15:28:29.149Z,38.58
2023-02-24T15:31:05.267Z,35.50
2023-02-24T15:33:41.159Z,40.75
2023-02-24T15:36:30.203Z,42.00
2023-02-24T15:39:04.559Z,39.17
2023-02-24T15:41:50.221Z,36.78
2023-02-24T15:44:30.915Z,40.90
2023-02-24T15:47:05.283Z,40.08
2023-02-24T15:49:32.294Z,37.38
2023-02-24T15:52:06.264Z,40.55
2023-02-24T15:54:35.915Z,42.05
2023-02-24T15:57:03.130Z,40.67
2023-02-24T15:59:36.255Z,39.90
2023-02-24T16:02:10.227Z,38.35
2023-02-24T16:04:37.208Z,43.08
2023-02-24T16:07:04.196Z,40.28
2023-02-24T16:09:47.244Z,38.78
2023-02-24T16:12:16.842Z,41.72
2023-02-24T16:14:44.024Z,47.90
2023-02-24T16:17:46.257Z,47.20
2023-02-24T16:20:25.596Z,42.67
2023-02-24T16:23:00.233Z,44.17
2023-02-24T16:25:27.745Z,42.90
2023-02-24T16:27:54.721Z,43.25
2023-02-24T16:30:28.305Z,50.08
2023-02-24T16:32:55.542Z,52.42
2023-02-24T16:35:29.272Z,51.78
2023-02-24T16:37:56.197Z,47.63
2023-02-24T16:40:27.742Z,46.10
2023-02-24T16:43:01.248Z,40.15
2023-02-24T16:45:28.536Z,47.08
2023-02-24T16:48:03.245Z,45.58
2023-02-24T16:50:42.272Z,43.35
2023-02-24T16:53:12.809Z,47.03
2023-02-24T16:55:39.860Z,44.00
2023-02-24T16:58:16.875Z,43.47
2023-02-24T17:00:46.695Z,45.75
2023-02-24T17:03:34.695Z,49.20
2023-02-24T17:06:02.123Z,56.40
2023-02-24T17:08:36.304Z,52.20
2023-02-24T17:11:05.722Z,41.08
2023-02-24T17:13:35.604Z,42.53
2023-02-24T17:16:13.733Z,39.78
2023-02-24T17:18:40.752Z,38.42
2023-02-24T17:21:17.542Z,37.50
2023-02-24T17:23:45.758Z,42.88
2023-02-24T17:26:25.554Z,46.22
2023-02-24T17:28:56.182Z,53.28
2023-02-24T17:31:23.307Z,53.35
2023-02-24T17:33:57.331Z,59.83
2023-02-24T17:36:24.404Z,57.17
2023-02-24T17:38:51.503Z,44.75
2023-02-24T17:41:25.354Z,44.75
2023-02-24T17:43:53.348Z,44.42
2023-02-24T17:46:27.369Z,47.00
2023-02-24T17:48:54.685Z,43.10
2023-02-24T17:51:28.259Z,52.35
2023-02-24T17:53:55.293Z,53.03
2023-02-24T17:56:29.342Z,61.80
2023-02-24T17:58:56.533Z,56.03
2023-02-24T18:01:30.300Z,62.67
2023-02-24T18:03:57.371Z,54.30
2023-02-24T18:06:24.916Z,49.50
2023-02-24T18:08:58.370Z,55.28
2023-02-24T18:11:25.399Z,46.65
2023-02-24T18:13:52.389Z,54.88
2023-02-24T18:16:26.635Z,47.97
2023-02-24T18:18:53.748Z,51.65
2023-02-24T18:21:27.349Z,51.50
2023-02-24T18:23:54.464Z,51.88
2023-02-24T18:26:28.670Z,48.78
2023-02-24T18:28:56.093Z,47.25
2023-02-24T18:31:31.502Z,44.53
2023-02-24T18:33:59.040Z,45.63
2023-02-24T18:36:26.664Z,44.33
2023-02-24T18:39:00.388Z,54.95
2023-02-24T18:41:34.354Z,48.28
2023-02-24T18:44:01.346Z,56.28
2023-02-24T18:46:28.351Z,55.22
2023-02-24T18:49:03.377Z,57.83
2023-02-24T18:51:37.351Z,55.60
2023-02-24T18:54:11.318Z,47.35
2023-02-24T18:56:38.307Z,52.25
2023-02-24T18:59:05.317Z,48.25
2023-02-24T19:01:44.439Z,59.42
2023-02-24T19:04:11.708Z,54.72
2023-02-24T19:06:38.758Z,50.72
2023-02-24T19:09:17.388Z,51.67
2023-02-24T19:11:44.458Z,45.75
2023-02-24T19:14:18.390Z,39.90
2023-02-24T19:16:52.369Z,38.70
2023-02-24T19:19:19.464Z,40.58
2023-02-24T19:21:53.307Z,41.55
2023-02-24T19:24:20.263Z,37.05
2023-02-24T19:26:53.349Z,38.35
2023-02-24T19:29:20.480Z,40.45
2023-02-24T19:31:54.617Z,36.50
2023-02-24T19:34:28.354Z,38.75
2023-02-24T19:36:55.323Z,46.13
2023-02-24T19:39:29.383Z,43.85
2023-02-24T19:41:56.517Z,45.63
2023-02-24T19:44:30.435Z,42.75
2023-02-24T19:46:57.405Z,43.67
2023-02-24T19:49:24.636Z,45.05
2023-02-24T19:52:04.326Z,40.60
2023-02-24T19:54:38.363Z,38.72
2023-02-24T19:57:12.462Z,40.50
2023-02-24T19:59:39.512Z,39.30
2023-02-24T20:02:06.928Z,40.08
2023-02-24T20:04:40.548Z,40.05
2023-02-24T20:07:14.418Z,40.45
2023-02-24T20:09:48.366Z,40.10
2023-02-24T20:12:15.403Z,42.17
2023-02-24T20:14:49.403Z,41.97
2023-02-24T20:17:23.380Z,40.45
2023-02-24T20:19:50.490Z,38.85
2023-02-24T20:22:17.654Z,39.78
2023-02-24T20:24:51.421Z,39.85
2023-02-24T20:27:18.486Z,40.78
2023-02-24T20:29:45.753Z,41.55
2023-02-24T20:32:19.527Z,53.58
2023-02-24T20:34:46.672Z,56.85
2023-02-24T20:37:20.460Z,58.83
2023-02-24T20:39:54.472Z,51.33
2023-02-24T20:42:21.628Z,49.10
2023-02-24T20:44:48.680Z,51.85
2023-02-24T20:47:22.548Z,47.67
2023-02-24T20:49:49.610Z,47.67
2023-02-24T20:52:16.620Z,60.95
2023-02-24T20:54:50.434Z,55.85
2023-02-24T20:57:24.388Z,56.50
2023-02-24T21:00:02.689Z,56.58
2023-02-24T21:02:36.404Z,52.72
2023-02-24T21:05:03.662Z,45.58
2023-02-24T21:07:37.462Z,45.03
2023-02-24T21:10:12.033Z,39.95
2023-02-24T21:12:45.382Z,40.15
2023-02-24T21:15:19.452Z,38.72
2023-02-24T21:17:46.440Z,43.05
2023-02-24T21:20:20.398Z,41.25
2023-02-24T21:22:47.431Z,41.05
2023-02-24T21:25:21.461Z,38.42
2023-02-24T21:27:55.460Z,43.83
2023-02-24T21:30:22.473Z,41.15
2023-02-24T21:32:49.506Z,42.08
2023-02-24T21:35:23.392Z,38.30
2023-02-24T21:37:50.388Z,37.55
2023-02-24T21:40:24.481Z,40.88
2023-02-24T21:42:51.595Z,38.05
2023-02-24T21:45:25.442Z,41.47
2023-02-24T21:47:59.404Z,41.03
2023-02-24T21:50:33.468Z,44.42
2023-02-24T21:53:00.525Z,60.05
2023-02-24T21:55:34.460Z,64.40
2023-02-24T21:58:01.459Z,53.25
2023-02-24T22:00:35.422Z,56.28
2023-02-24T22:03:03.030Z,42.05
2023-02-24T22:05:36.468Z,44.40
2023-02-24T22:08:03.619Z,35.75
2023-02-24T22:10:37.473Z,35.55
2023-02-24T22:13:04.553Z,35.28
2023-02-24T22:15:38.605Z,37.30
2023-02-24T22:18:05.728Z,45.65
2023-02-24T22:20:32.775Z,44.22
2023-02-24T22:23:06.494Z,40.78
2023-02-24T22:25:35.903Z,40.95
2023-02-24T22:28:03.013Z,38.47
2023-02-24T22:30:36.471Z,44.45
2023-02-24T22:33:03.553Z,41.00
2023-02-24T22:35:34.125Z,36.00
2023-02-24T22:38:08.491Z,38.88
2023-02-24T22:40:35.595Z,40.95
2023-02-24T22:43:09.467Z,36.78
2023-02-24T22:45:36.692Z,39.75
2023-02-24T22:48:10.554Z,37.40
2023-02-24T22:50:37.689Z,37.28
2023-02-24T22:53:11.456Z,37.90
2023-02-24T22:55:45.837Z,31.45
2023-02-24T22:58:27.051Z,34.38
2023-02-24T23:00:54.486Z,34.55
2023-02-24T23:03:30.537Z,36.13
2023-02-24T23:06:05.350Z,40.45
2023-02-24T23:08:40.460Z,38.47
2023-02-24T23:11:14.351Z,40.08
2023-02-24T23:13:49.485Z,42.15
2023-02-24T23:16:19.550Z,45.20
2023-02-24T23:18:53.550Z,43.70
2023-02-24T23:21:37.754Z,39.15
2023-02-24T23:24:12.492Z,38.85
2023-02-24T23:26:45.811Z,40.03
2023-02-24T23:29:21.408Z,40.47
2023-02-24T23:31:48.589Z,35.25
2023-02-24T23:34:15.706Z,35.33
2023-02-24T23:36:51.500Z,37.45
2023-02-24T23:39:19.730Z,31.33
2023-02-24T23:41:55.016Z,36.70
2023-02-24T23:44:23.783Z,39.72
2023-02-24T23:46:50.745Z,37.75
2023-02-24T23:49:24.455Z,39.72
2023-02-24T23:51:58.481Z,44.58
2023-02-24T23:54:25.388Z,46.50
2023-02-24T23:56:52.328Z,37.17
2023-02-24T23:59:25.450Z,38.95
